This is the latest recevied weather packets stored in our database for station/object SR9WXGR. If no packets are shown the sender has not sent any weather packets the latest 10 day(s).
| Time | Temp. | Humidity | Pressure | Rain* | Wind** | Luminosity | Snow |
|---|---|---|---|---|---|---|---|
| 1777509300 | 0.56° C | 48% | 989 hPa | - | - | - | - |
| 1777505702 | 1.67° C | 44% | 989 hPa | - | - | - | - |
| 1777502101 | 2.78° C | 41% | 989 hPa | - | - | - | - |
| 1777498501 | 3.89° C | 38% | 989 hPa | - | - | - | - |
| 1777494901 | 5° C | 36% | 988 hPa | - | - | - | - |
| 1777491301 | 5° C | 34% | 988 hPa | - | - | - | - |
| 1777487702 | 5.56° C | 33% | 987 hPa | - | - | - | - |
| 1777484101 | 8.89° C | 27% | 986 hPa | - | - | - | - |
| 1777480504 | 11.67° C | 22% | 986 hPa | - | - | - | - |
| 1777476902 | 12.78° C | 21% | 985 hPa | - | - | - | - |
| 1777473302 | 11.67° C | 20% | 985 hPa | - | - | - | - |
| 1777469701 | 10° C | 23% | 985 hPa | - | - | - | - |
| 1777466102 | 10° C | 26% | 985 hPa | - | - | - | - |
| 1777462501 | 10° C | 29% | 985 hPa | - | - | - | - |
| 1777458904 | 10° C | 31% | 985 hPa | - | - | - | - |
| 1777455302 | 8.89° C | 33% | 985 hPa | - | - | - | - |
| 1777451704 | 8.89° C | 34% | 985 hPa | - | - | - | - |
| 1777448101 | 7.78° C | 37% | 985 hPa | - | - | - | - |
| 1777444501 | 5.56° C | 40% | 984 hPa | - | - | - | - |
| 1777440902 | 2.78° C | 46% | 984 hPa | - | - | - | - |
| 1777437300 | 1.67° C | 50% | 984 hPa | - | - | - | - |
| 1777433701 | 0.56° C | 50% | 984 hPa | - | - | - | - |
| 1777430101 | 0.56° C | 49% | 984 hPa | - | - | - | - |
| 1777426502 | 0.56° C | 51% | 984 hPa | - | - | - | - |
| 1777422900 | 1.67° C | 48% | 983 hPa | - | - | - | - |
* Rain since midnight (hover to see other rain measurements)
** Current wind speed in m/s (hover to see current wind gust speed)